Time;durP1;ratioP1;P1;durP2;ratioP2;P2;SDS_P1;SDS_P2;PMS_P1;PMS_P2;Temp;Humidity;BMP_temperature;BMP_pressure;BME280_temperature;BME280_humidity;BME280_pressure;Samples;Min_cycle;Max_cycle;Signal;HPM_P1;HPM_P2
2023/09/08 00:00:22;;;;;;;11.27;6.90;;;;;;;;;;2571253;23;20330;-90
2023/09/08 00:01:23;;;;;;;14.68;7.75;;;;;;;;;;2567955;23;20004;-90
2023/09/08 00:02:25;;;;;;;11.65;6.75;;;;;;;;;;2568177;23;20427;-91
2023/09/08 00:03:25;;;;;;;13.68;7.15;;;;;;;;;;2568642;23;20481;-90
2023/09/08 00:04:25;;;;;;;10.82;7.25;;;;;;;;;;2582220;23;20024;-90
2023/09/08 00:05:26;;;;;;;14.52;7.68;;;;;;;;;;2582830;22;20023;-89
2023/09/08 00:06:26;;;;;;;16.67;6.85;;;;;;;;;;2582732;22;20499;-89
2023/09/08 00:07:26;;;;;;;9.90;6.57;;;;;;;;;;2582885;22;20087;-89
2023/09/08 00:08:27;;;;;;;11.20;6.50;;;;;;;;;;2580330;23;20146;-90
2023/09/08 00:09:27;;;;;;;9.00;6.70;;;;;;;;;;2568187;23;20387;-89
2023/09/08 00:10:28;;;;;;;14.73;6.90;;;;;;;;;;2581289;23;20000;-89
2023/09/08 00:11:28;;;;;;;13.23;6.90;;;;;;;;;;2568093;23;20034;-90
2023/09/08 00:12:28;;;;;;;11.65;6.68;;;;;;;;;;2581976;23;20089;-90
2023/09/08 00:13:29;;;;;;;12.65;7.22;;;;;;;;;;2582781;23;20363;-90
2023/09/08 00:14:29;;;;;;;10.40;7.35;;;;;;;;;;2580739;23;20008;-90
2023/09/08 00:15:29;;;;;;;12.48;7.22;;;;;;;;;;2581572;23;20351;-89
2023/09/08 00:16:30;;;;;;;15.43;6.65;;;;;;;;;;2580006;23;20070;-90
2023/09/08 00:17:30;;;;;;;10.40;7.50;;;;;;;;;;2567918;23;20330;-90
2023/09/08 00:18:31;;;;;;;13.00;6.85;;;;;;;;;;2568071;23;20005;-90
2023/09/08 00:19:31;;;;;;;16.50;7.20;;;;;;;;;;2567943;23;20079;-90
2023/09/08 00:20:32;;;;;;;11.18;7.07;;;;;;;;;;2581313;23;20008;-89
2023/09/08 00:21:32;;;;;;;11.68;7.18;;;;;;;;;;2582362;23;20456;-89
2023/09/08 00:22:32;;;;;;;12.35;7.18;;;;;;;;;;2581099;23;20069;-90
2023/09/08 00:23:33;;;;;;;12.38;7.13;;;;;;;;;;2582247;23;20461;-89
2023/09/08 00:24:33;;;;;;;11.15;7.18;;;;;;;;;;2580876;23;20478;-89
2023/09/08 00:25:34;;;;;;;12.27;7.90;;;;;;;;;;2580935;23;20028;-89
2023/09/08 00:26:34;;;;;;;12.82;6.80;;;;;;;;;;2582117;23;20543;-89
2023/09/08 00:27:35;;;;;;;9.85;6.88;;;;;;;;;;2543696;23;20019;-89
2023/09/08 00:28:35;;;;;;;10.80;7.40;;;;;;;;;;2582662;23;20020;-89
2023/09/08 00:29:36;;;;;;;14.27;7.28;;;;;;;;;;2582815;23;20004;-89
2023/09/08 00:30:36;;;;;;;11.18;6.47;;;;;;;;;;2581536;23;20350;-90
2023/09/08 00:31:36;;;;;;;12.35;7.40;;;;;;;;;;2568921;23;20012;-88
2023/09/08 00:32:37;;;;;;;10.93;6.70;;;;;;;;;;2581603;23;20397;-90
2023/09/08 00:33:37;;;;;;;9.10;6.78;;;;;;;;;;2582404;23;20086;-89
2023/09/08 00:34:40;;;;;;;11.57;6.97;;;;;;;;;;2582806;22;20004;-91
2023/09/08 00:35:44;;;;;;;15.70;7.05;;;;;;;;;;2582156;22;20389;-89
2023/09/08 00:36:44;;;;;;;10.70;6.90;;;;;;;;;;2582294;22;20000;-90
2023/09/08 00:37:45;;;;;;;14.85;7.55;;;;;;;;;;2582169;22;20000;-90
2023/09/08 00:38:45;;;;;;;15.50;7.78;;;;;;;;;;2581222;23;19996;-90
2023/09/08 00:39:46;;;;;;;11.38;8.27;;;;;;;;;;2581351;23;20000;-90
2023/09/08 00:40:46;;;;;;;11.07;6.95;;;;;;;;;;2580978;23;20087;-89
2023/09/08 00:41:47;;;;;;;13.70;8.30;;;;;;;;;;2568617;23;20001;-90
2023/09/08 00:42:47;;;;;;;14.30;8.27;;;;;;;;;;2568509;23;19996;-89
2023/09/08 00:43:48;;;;;;;13.50;7.70;;;;;;;;;;2581041;23;20079;-90
2023/09/08 00:44:48;;;;;;;13.52;7.63;;;;;;;;;;2585429;23;20347;-90
2023/09/08 00:45:49;;;;;;;13.35;7.57;;;;;;;;;;2581025;23;20083;-90
2023/09/08 00:46:49;;;;;;;10.73;7.35;;;;;;;;;;2589934;23;20006;-90
2023/09/08 00:47:50;;;;;;;9.65;7.53;;;;;;;;;;2590638;22;20012;-88
2023/09/08 00:48:50;;;;;;;12.63;7.78;;;;;;;;;;2573034;23;20175;-89
2023/09/08 00:49:51;;;;;;;13.63;7.45;;;;;;;;;;2568653;23;20066;-90
2023/09/08 00:50:51;;;;;;;13.75;7.63;;;;;;;;;;2568786;23;20012;-89
2023/09/08 00:51:52;;;;;;;13.25;7.57;;;;;;;;;;2585144;23;19996;-89
2023/09/08 00:52:52;;;;;;;13.55;7.10;;;;;;;;;;2585888;22;20063;-90
2023/09/08 00:53:53;;;;;;;11.18;7.68;;;;;;;;;;2585858;22;20016;-90
2023/09/08 00:54:53;;;;;;;13.85;7.97;;;;;;;;;;2585593;22;20015;-90
2023/09/08 00:55:54;;;;;;;11.80;7.25;;;;;;;;;;2585463;22;20004;-90
2023/09/08 00:56:57;;;;;;;12.88;7.90;;;;;;;;;;2585558;22;20026;-89
2023/09/08 00:57:58;;;;;;;11.75;7.68;;;;;;;;;;2581008;23;20000;-91
2023/09/08 00:58:59;;;;;;;14.20;7.55;;;;;;;;;;2581115;23;20004;-90
2023/09/08 01:00:00;;;;;;;14.18;8.05;;;;;;;;;;2584512;23;20050;-89
2023/09/08 01:01:01;;;;;;;13.00;7.20;;;;;;;;;;2585317;22;20000;-89
2023/09/08 01:02:02;;;;;;;10.35;7.78;;;;;;;;;;2581663;23;20083;-90
2023/09/08 01:03:03;;;;;;;12.10;7.50;;;;;;;;;;2581178;23;20019;-89
2023/09/08 01:04:04;;;;;;;12.13;6.95;;;;;;;;;;2581404;23;19996;-90
2023/09/08 01:05:04;;;;;;;10.25;7.15;;;;;;;;;;2568450;23;20008;-90
2023/09/08 01:06:06;;;;;;;14.40;7.70;;;;;;;;;;2580970;23;20075;-89
2023/09/08 01:07:06;;;;;;;11.48;7.22;;;;;;;;;;2581393;23;20077;-91
2023/09/08 01:08:08;;;;;;;12.30;7.85;;;;;;;;;;2568452;23;20147;-90
2023/09/08 01:09:09;;;;;;;13.57;7.45;;;;;;;;;;2583779;23;20024;-90
2023/09/08 01:10:10;;;;;;;13.48;7.97;;;;;;;;;;2584428;22;20004;-90
2023/09/08 01:11:11;;;;;;;13.68;7.38;;;;;;;;;;2580773;23;20031;-91
2023/09/08 01:12:11;;;;;;;11.43;7.45;;;;;;;;;;2583628;23;20010;-90
2023/09/08 01:13:11;;;;;;;15.65;8.43;;;;;;;;;;2581328;23;19999;-90
2023/09/08 01:14:13;;;;;;;12.68;7.00;;;;;;;;;;2583813;23;20001;-90
2023/09/08 01:15:14;;;;;;;11.93;7.25;;;;;;;;;;2587982;22;20000;-90
2023/09/08 01:16:14;;;;;;;13.05;8.02;;;;;;;;;;2579911;23;20008;-90
2023/09/08 01:17:14;;;;;;;13.50;7.82;;;;;;;;;;2568724;23;19997;-89
2023/09/08 01:18:15;;;;;;;10.73;7.07;;;;;;;;;;1606973;23;12438890;-89
2023/09/08 01:19:16;;;;;;;10.13;7.18;;;;;;;;;;2573058;23;20315;-90
2023/09/08 01:20:24;;;;;;;9.95;7.32;;;;;;;;;;2568765;23;20064;-90
2023/09/08 01:21:34;;;;;;;12.25;7.13;;;;;;;;;;2557913;23;20005;-91
2023/09/08 01:22:53;;;;;;;15.57;7.68;;;;;;;;;;2570125;23;20015;-90
2023/09/08 01:24:02;;;;;;;14.48;8.00;;;;;;;;;;2572400;23;19997;-90
2023/09/08 01:25:11;;;;;;;13.85;7.78;;;;;;;;;;2569867;23;20384;-90
2023/09/08 01:26:18;;;;;;;12.75;7.25;;;;;;;;;;2570278;23;20024;-91
2023/09/08 01:27:21;;;;;;;10.27;7.30;;;;;;;;;;2582864;23;20059;-90
2023/09/08 01:28:23;;;;;;;14.07;7.40;;;;;;;;;;2583594;23;20322;-90
2023/09/08 01:29:25;;;;;;;10.13;7.90;;;;;;;;;;2568313;23;20015;-90
2023/09/08 01:30:28;;;;;;;14.30;7.60;;;;;;;;;;2568988;23;20008;-90
2023/09/08 01:31:28;;;;;;;13.88;7.60;;;;;;;;;;2582486;23;20000;-90
2023/09/08 01:32:30;;;;;;;11.25;7.47;;;;;;;;;;2568431;23;20382;-90
2023/09/08 01:33:30;;;;;;;14.23;7.65;;;;;;;;;;2568808;23;20012;-90
2023/09/08 01:34:31;;;;;;;11.40;7.55;;;;;;;;;;2569457;23;20028;-90
2023/09/08 01:35:31;;;;;;;12.15;7.85;;;;;;;;;;2587662;23;20004;-90
2023/09/08 01:36:36;;;;;;;12.55;7.68;;;;;;;;;;2585919;23;20004;-90
2023/09/08 01:37:40;;;;;;;12.63;7.70;;;;;;;;;;2570692;23;20071;-95
2023/09/08 01:38:41;;;;;;;11.82;7.55;;;;;;;;;;2571647;23;20012;-93
2023/09/08 01:39:41;;;;;;;9.60;7.07;;;;;;;;;;2570096;23;20032;-94
2023/09/08 01:40:42;;;;;;;15.55;8.45;;;;;;;;;;2569956;23;20079;-94
2023/09/08 01:41:42;;;;;;;12.68;8.38;;;;;;;;;;2569811;23;20027;-94
2023/09/08 01:42:43;;;;;;;14.38;8.10;;;;;;;;;;2569923;23;20419;-93
2023/09/08 01:43:43;;;;;;;10.20;6.68;;;;;;;;;;2582635;23;20004;-93
2023/09/08 01:44:44;;;;;;;10.48;7.28;;;;;;;;;;2582574;23;20004;-93
2023/09/08 01:45:44;;;;;;;13.27;7.68;;;;;;;;;;2569729;23;20051;-93
2023/09/08 01:46:44;;;;;;;10.85;7.40;;;;;;;;;;2582570;23;20118;-93
2023/09/08 01:47:45;;;;;;;10.75;7.00;;;;;;;;;;2570269;23;20031;-94
2023/09/08 01:48:45;;;;;;;12.63;7.63;;;;;;;;;;2582685;23;20342;-93
2023/09/08 01:49:45;;;;;;;11.30;7.32;;;;;;;;;;2582578;23;20006;-94
2023/09/08 01:50:47;;;;;;;10.80;6.70;;;;;;;;;;2569959;23;20054;-95
2023/09/08 01:51:48;;;;;;;10.73;7.30;;;;;;;;;;2586757;23;19996;-92
2023/09/08 01:52:48;;;;;;;10.77;7.32;;;;;;;;;;2582429;23;20087;-93
2023/09/08 01:53:49;;;;;;;10.70;7.30;;;;;;;;;;2586603;23;19988;-93
2023/09/08 01:54:49;;;;;;;12.75;7.35;;;;;;;;;;2582314;23;19992;-93
2023/09/08 01:55:49;;;;;;;12.15;7.72;;;;;;;;;;2586285;23;20074;-92
2023/09/08 01:56:51;;;;;;;11.10;7.45;;;;;;;;;;2582163;23;20337;-93
2023/09/08 01:57:51;;;;;;;11.07;7.60;;;;;;;;;;2569636;23;19992;-93
2023/09/08 01:58:51;;;;;;;8.80;7.00;;;;;;;;;;2569615;23;20035;-93
2023/09/08 01:59:52;;;;;;;12.95;7.30;;;;;;;;;;2569770;23;20064;-94
2023/09/08 02:00:52;;;;;;;12.98;8.05;;;;;;;;;;2569792;23;20003;-94
2023/09/08 02:01:52;;;;;;;10.23;7.25;;;;;;;;;;2569683;23;19993;-92
2023/09/08 02:02:53;;;;;;;10.88;7.40;;;;;;;;;;2569894;23;19993;-92
2023/09/08 02:03:53;;;;;;;13.82;6.93;;;;;;;;;;2569741;23;20019;-93
2023/09/08 02:04:54;;;;;;;9.77;7.28;;;;;;;;;;2569790;23;20406;-93
2023/09/08 02:05:54;;;;;;;12.98;7.95;;;;;;;;;;2569783;23;19989;-92
2023/09/08 02:06:54;;;;;;;12.63;6.93;;;;;;;;;;2582251;23;20533;-92
2023/09/08 02:07:56;;;;;;;11.50;6.75;;;;;;;;;;2569653;23;20071;-92
2023/09/08 02:08:56;;;;;;;12.10;7.72;;;;;;;;;;2569715;23;20047;-94
2023/09/08 02:09:57;;;;;;;11.60;6.82;;;;;;;;;;2569631;23;19989;-94
2023/09/08 02:10:57;;;;;;;13.57;7.38;;;;;;;;;;2569913;23;19997;-92
2023/09/08 02:11:58;;;;;;;10.30;6.97;;;;;;;;;;2569712;23;20090;-93
2023/09/08 02:12:58;;;;;;;10.80;7.10;;;;;;;;;;2569986;23;20425;-92
2023/09/08 02:13:59;;;;;;;10.27;7.10;;;;;;;;;;2569879;23;19999;-94
2023/09/08 02:14:59;;;;;;;12.23;7.97;;;;;;;;;;2569564;23;20084;-94
2023/09/08 02:16:00;;;;;;;11.40;7.25;;;;;;;;;;2582085;23;20102;-94
2023/09/08 02:17:00;;;;;;;10.82;7.07;;;;;;;;;;2569807;23;20063;-93
2023/09/08 02:18:01;;;;;;;13.30;7.63;;;;;;;;;;2585910;23;20016;-93
2023/09/08 02:19:01;;;;;;;11.23;7.22;;;;;;;;;;2582249;23;20138;-94
2023/09/08 02:20:03;;;;;;;12.70;6.78;;;;;;;;;;2582543;23;19996;-94
2023/09/08 02:21:03;;;;;;;10.10;7.13;;;;;;;;;;2570042;23;20044;-94
2023/09/08 02:22:03;;;;;;;12.13;7.50;;;;;;;;;;2548047;23;20081;-95
2023/09/08 02:23:05;;;;;;;14.20;7.43;;;;;;;;;;2583343;23;20008;-93
2023/09/08 02:24:06;;;;;;;10.70;7.63;;;;;;;;;;2577568;23;20063;-93
2023/09/08 02:25:07;;;;;;;13.90;7.93;;;;;;;;;;2578015;23;20081;-93
2023/09/08 02:26:07;;;;;;;8.10;6.95;;;;;;;;;;2569801;23;20009;-93
2023/09/08 02:27:08;;;;;;;11.52;7.28;;;;;;;;;;2557226;23;20072;-95
2023/09/08 02:28:08;;;;;;;11.95;7.60;;;;;;;;;;2557150;23;20005;-93
2023/09/08 02:29:09;;;;;;;12.60;8.02;;;;;;;;;;2557215;23;19997;-93
2023/09/08 02:30:09;;;;;;;10.95;7.88;;;;;;;;;;2569534;23;20547;-94
2023/09/08 02:31:11;;;;;;;10.65;7.35;;;;;;;;;;2557009;23;20538;-93
2023/09/08 02:32:13;;;;;;;12.70;7.78;;;;;;;;;;2569608;23;20011;-92
2023/09/08 02:33:14;;;;;;;10.50;7.25;;;;;;;;;;2557910;23;20067;-93
2023/09/08 02:34:14;;;;;;;14.32;10.27;;;;;;;;;;2557547;23;20004;-92
2023/09/08 02:35:16;;;;;;;11.00;7.47;;;;;;;;;;2557125;23;20355;-93
2023/09/08 02:36:16;;;;;;;12.77;8.10;;;;;;;;;;2557426;23;20005;-93
2023/09/08 02:37:18;;;;;;;9.80;7.93;;;;;;;;;;2569508;23;19996;-93
2023/09/08 02:38:19;;;;;;;12.57;8.20;;;;;;;;;;2557361;23;20012;-93
2023/09/08 02:39:19;;;;;;;10.82;7.95;;;;;;;;;;2557302;23;20021;-93
2023/09/08 02:40:23;;;;;;;12.13;7.18;;;;;;;;;;2557510;23;20035;-92
2023/09/08 02:41:23;;;;;;;12.35;7.53;;;;;;;;;;2569988;23;20054;-93
2023/09/08 02:42:24;;;;;;;12.85;8.23;;;;;;;;;;2557384;23;20462;-93
2023/09/08 02:43:24;;;;;;;15.30;7.60;;;;;;;;;;2557437;23;20024;-93
2023/09/08 02:44:26;;;;;;;12.30;8.52;;;;;;;;;;2569738;23;20358;-93
2023/09/08 02:45:27;;;;;;;12.75;8.05;;;;;;;;;;2569512;23;20362;-93
2023/09/08 02:46:27;;;;;;;13.05;8.32;;;;;;;;;;2571291;23;20024;-93
2023/09/08 02:47:27;;;;;;;10.85;7.95;;;;;;;;;;2582105;23;20024;-93
2023/09/08 02:48:28;;;;;;;12.18;7.85;;;;;;;;;;2569601;23;20063;-93
2023/09/08 02:49:28;;;;;;;11.82;8.13;;;;;;;;;;2557155;23;20019;-93
2023/09/08 02:50:28;;;;;;;12.90;7.43;;;;;;;;;;2557149;23;20060;-92
2023/09/08 02:51:29;;;;;;;11.73;8.52;;;;;;;;;;2569536;23;20435;-92
2023/09/08 02:52:29;;;;;;;13.07;8.57;;;;;;;;;;2557288;23;20044;-94
2023/09/08 02:53:30;;;;;;;11.13;7.82;;;;;;;;;;2569581;23;19997;-95
2023/09/08 02:54:30;;;;;;;12.02;7.93;;;;;;;;;;2569579;23;20021;-94
2023/09/08 02:55:31;;;;;;;12.13;7.97;;;;;;;;;;2557191;23;20001;-95
2023/09/08 02:56:31;;;;;;;12.80;8.40;;;;;;;;;;2569026;23;20047;-93
2023/09/08 02:57:31;;;;;;;13.23;8.98;;;;;;;;;;2583538;23;20020;-94
2023/09/08 02:58:35;;;;;;;10.27;7.97;;;;;;;;;;2569573;23;20016;-93
2023/09/08 02:59:35;;;;;;;15.90;8.70;;;;;;;;;;2127965;23;10065267;-93
2023/09/08 03:00:36;;;;;;;11.38;7.45;;;;;;;;;;2569960;23;20000;-94
2023/09/08 03:01:36;;;;;;;13.18;7.97;;;;;;;;;;2557403;23;20008;-93
2023/09/08 03:02:36;;;;;;;12.85;8.05;;;;;;;;;;2569574;23;20000;-93
2023/09/08 03:03:37;;;;;;;12.00;8.30;;;;;;;;;;2569971;23;20000;-94
2023/09/08 03:04:37;;;;;;;17.42;8.40;;;;;;;;;;2557062;23;20005;-93
2023/09/08 03:05:38;;;;;;;14.35;8.35;;;;;;;;;;2557332;23;20037;-93
2023/09/08 03:06:38;;;;;;;13.13;7.82;;;;;;;;;;2557254;23;20353;-92
2023/09/08 03:07:39;;;;;;;11.90;8.82;;;;;;;;;;2572665;23;20005;-93
2023/09/08 03:08:39;;;;;;;11.63;7.90;;;;;;;;;;2569652;23;20005;-93
2023/09/08 03:09:39;;;;;;;12.35;8.45;;;;;;;;;;2570473;23;20023;-93
2023/09/08 03:10:40;;;;;;;12.38;7.70;;;;;;;;;;2569496;23;20071;-93
2023/09/08 03:11:41;;;;;;;10.90;7.70;;;;;;;;;;2560087;23;20001;-91
2023/09/08 03:12:41;;;;;;;14.25;7.97;;;;;;;;;;2568904;23;20005;-94
2023/09/08 03:13:42;;;;;;;14.18;8.32;;;;;;;;;;2565853;23;20062;-93
2023/09/08 03:14:43;;;;;;;11.95;8.25;;;;;;;;;;2557167;23;20376;-92
2023/09/08 03:15:43;;;;;;;14.00;7.95;;;;;;;;;;2557188;23;20131;-92
2023/09/08 03:16:44;;;;;;;10.82;8.20;;;;;;;;;;2542202;23;20021;-93
2023/09/08 03:17:44;;;;;;;13.18;7.85;;;;;;;;;;2529753;23;20071;-94
2023/09/08 03:18:44;;;;;;;12.00;8.05;;;;;;;;;;2545160;23;20092;-93
2023/09/08 03:19:46;;;;;;;10.48;8.27;;;;;;;;;;2557158;23;20452;-93
2023/09/08 03:20:50;;;;;;;12.07;8.70;;;;;;;;;;2557610;23;20015;-94
2023/09/08 03:21:50;;;;;;;12.82;8.38;;;;;;;;;;2557054;23;20036;-93
2023/09/08 03:22:51;;;;;;;12.52;9.15;;;;;;;;;;2556950;23;20063;-93
2023/09/08 03:23:52;;;;;;;12.27;8.00;;;;;;;;;;2569427;23;20047;-93
2023/09/08 03:24:53;;;;;;;14.40;7.85;;;;;;;;;;2557231;23;20439;-93
2023/09/08 03:25:53;;;;;;;12.18;8.60;;;;;;;;;;2557214;23;20000;-92
2023/09/08 03:26:54;;;;;;;11.05;8.10;;;;;;;;;;2557226;23;20009;-93
2023/09/08 03:27:54;;;;;;;11.07;8.40;;;;;;;;;;2557333;23;20406;-92
2023/09/08 03:28:54;;;;;;;17.60;9.02;;;;;;;;;;2557883;23;20459;-92
2023/09/08 03:29:55;;;;;;;10.32;8.07;;;;;;;;;;2557328;23;20001;-94
2023/09/08 03:30:55;;;;;;;15.20;7.78;;;;;;;;;;2569573;23;20459;-93
2023/09/08 03:31:56;;;;;;;13.90;8.95;;;;;;;;;;2569623;23;20010;-92
2023/09/08 03:32:56;;;;;;;11.57;7.82;;;;;;;;;;2569488;23;19997;-93
2023/09/08 03:33:56;;;;;;;11.38;7.90;;;;;;;;;;2557112;23;20051;-94
2023/09/08 03:34:57;;;;;;;15.80;7.50;;;;;;;;;;2556987;23;20438;-92
2023/09/08 03:35:57;;;;;;;13.05;8.82;;;;;;;;;;2557128;23;20009;-92
2023/09/08 03:36:58;;;;;;;11.73;8.25;;;;;;;;;;2573378;23;20129;-93
2023/09/08 03:37:58;;;;;;;11.05;8.60;;;;;;;;;;2573645;23;19996;-94
2023/09/08 03:38:58;;;;;;;10.60;7.53;;;;;;;;;;2151203;23;10001723;-95
2023/09/08 03:39:59;;;;;;;11.80;7.88;;;;;;;;;;2570512;23;20005;-92
2023/09/08 03:41:00;;;;;;;11.85;8.15;;;;;;;;;;2558912;23;20008;-93
2023/09/08 03:42:01;;;;;;;12.30;8.10;;;;;;;;;;2559224;23;20004;-92
2023/09/08 03:43:02;;;;;;;11.73;8.30;;;;;;;;;;2564429;23;20009;-92
2023/09/08 03:44:02;;;;;;;10.65;7.72;;;;;;;;;;2567964;23;20005;-93
2023/09/08 03:45:04;;;;;;;15.32;7.88;;;;;;;;;;2571061;23;20004;-93
2023/09/08 03:46:04;;;;;;;10.60;7.65;;;;;;;;;;2570927;23;20013;-93
2023/09/08 03:47:05;;;;;;;13.90;9.05;;;;;;;;;;2580557;23;20023;-94
2023/09/08 03:48:06;;;;;;;12.60;8.15;;;;;;;;;;2567719;23;20001;-92
2023/09/08 03:49:07;;;;;;;12.13;8.30;;;;;;;;;;2578400;23;20072;-93
2023/09/08 03:50:08;;;;;;;13.43;8.27;;;;;;;;;;2573663;23;20474;-93
2023/09/08 03:51:08;;;;;;;13.38;8.30;;;;;;;;;;2582727;23;20003;-93
2023/09/08 03:52:08;;;;;;;14.23;8.75;;;;;;;;;;2585671;23;20478;-92
2023/09/08 03:53:10;;;;;;;11.02;7.45;;;;;;;;;;2569796;23;20008;-93
2023/09/08 03:54:10;;;;;;;9.02;6.85;;;;;;;;;;2569757;23;20004;-92
2023/09/08 03:55:11;;;;;;;9.98;7.65;;;;;;;;;;2569470;23;20000;-93
2023/09/08 03:56:12;;;;;;;13.50;7.93;;;;;;;;;;2569821;23;20000;-93
2023/09/08 03:57:12;;;;;;;13.55;7.63;;;;;;;;;;2583316;23;20000;-93
2023/09/08 03:58:13;;;;;;;13.50;7.43;;;;;;;;;;2570992;23;20366;-93
2023/09/08 03:59:13;;;;;;;11.40;7.00;;;;;;;;;;2558757;23;20080;-92
2023/09/08 04:00:19;;;;;;;11.43;7.00;;;;;;;;;;2561501;23;20008;-90
2023/09/08 04:01:19;;;;;;;12.05;6.88;;;;;;;;;;2584646;23;20000;-91
2023/09/08 04:02:20;;;;;;;9.52;7.22;;;;;;;;;;2579360;23;20009;-93
2023/09/08 04:03:20;;;;;;;11.38;7.43;;;;;;;;;;2564057;23;20320;-93
2023/09/08 04:04:21;;;;;;;11.65;7.32;;;;;;;;;;2561841;23;20083;-93
2023/09/08 04:05:21;;;;;;;11.70;7.20;;;;;;;;;;2572943;23;20055;-92
2023/09/08 04:06:21;;;;;;;9.73;7.03;;;;;;;;;;2570611;23;20031;-92
2023/09/08 04:07:22;;;;;;;14.02;8.23;;;;;;;;;;2558226;23;20009;-93
2023/09/08 04:08:22;;;;;;;10.52;7.57;;;;;;;;;;2558017;23;20352;-93
2023/09/08 04:09:23;;;;;;;12.52;7.72;;;;;;;;;;2558080;23;20064;-94
2023/09/08 04:10:23;;;;;;;10.70;8.10;;;;;;;;;;2569988;23;20438;-93
2023/09/08 04:11:23;;;;;;;11.35;7.30;;;;;;;;;;2557997;23;20016;-93
2023/09/08 04:12:24;;;;;;;10.57;7.35;;;;;;;;;;2557966;23;20439;-94
2023/09/08 04:13:24;;;;;;;11.30;7.80;;;;;;;;;;2570401;23;20067;-93
2023/09/08 04:14:27;;;;;;;11.27;8.05;;;;;;;;;;2557549;23;20109;-94
2023/09/08 04:15:27;;;;;;;10.30;7.50;;;;;;;;;;2558293;23;20005;-94
2023/09/08 04:16:28;;;;;;;12.02;7.65;;;;;;;;;;2570701;23;20044;-92
2023/09/08 04:17:29;;;;;;;12.90;7.40;;;;;;;;;;2570281;23;20366;-94
2023/09/08 04:18:32;;;;;;;13.35;8.52;;;;;;;;;;2570665;23;20079;-94
2023/09/08 04:19:32;;;;;;;12.00;7.70;;;;;;;;;;2569862;23;20068;-90
2023/09/08 04:20:33;;;;;;;11.85;7.45;;;;;;;;;;2568632;23;20095;-90
2023/09/08 04:21:34;;;;;;;13.50;7.60;;;;;;;;;;2556173;23;20091;-90
2023/09/08 04:22:34;;;;;;;11.05;7.28;;;;;;;;;;2568499;23;20009;-90
2023/09/08 04:23:35;;;;;;;13.43;7.55;;;;;;;;;;2568814;23;20019;-90
2023/09/08 04:24:36;;;;;;;11.20;8.60;;;;;;;;;;2569601;23;20539;-91
2023/09/08 04:25:36;;;;;;;12.65;7.78;;;;;;;;;;2570460;23;20001;-89
2023/09/08 04:26:37;;;;;;;11.88;7.63;;;;;;;;;;2569145;23;20000;-91
2023/09/08 04:27:37;;;;;;;12.85;8.20;;;;;;;;;;2556155;23;20505;-89
2023/09/08 04:28:38;;;;;;;10.57;7.05;;;;;;;;;;2568615;23;20060;-91
2023/09/08 04:29:38;;;;;;;11.68;8.52;;;;;;;;;;2556197;23;20001;-90
2023/09/08 04:30:39;;;;;;;16.52;7.53;;;;;;;;;;2568659;23;20000;-92
2023/09/08 04:31:39;;;;;;;14.55;8.45;;;;;;;;;;2569034;23;20005;-90
2023/09/08 04:32:40;;;;;;;9.75;6.65;;;;;;;;;;2556303;23;20005;-90
2023/09/08 04:33:40;;;;;;;11.00;7.22;;;;;;;;;;2568589;23;20405;-90
2023/09/08 04:34:41;;;;;;;13.05;7.28;;;;;;;;;;2556474;23;20009;-90
2023/09/08 04:35:43;;;;;;;9.38;6.63;;;;;;;;;;2568522;23;20091;-90
2023/09/08 04:36:43;;;;;;;11.23;6.90;;;;;;;;;;2568907;23;20083;-90
2023/09/08 04:37:44;;;;;;;9.95;6.82;;;;;;;;;;2581161;23;20442;-90
2023/09/08 04:38:44;;;;;;;10.90;6.95;;;;;;;;;;2568658;23;20095;-90
2023/09/08 04:39:45;;;;;;;9.95;7.20;;;;;;;;;;2555950;23;20663;-90
2023/09/08 04:40:46;;;;;;;9.50;6.32;;;;;;;;;;2556061;23;20005;-90
2023/09/08 04:41:46;;;;;;;9.30;6.70;;;;;;;;;;2569157;23;20458;-93
2023/09/08 04:42:47;;;;;;;9.20;5.47;;;;;;;;;;2569499;23;20053;-89
2023/09/08 04:43:47;;;;;;;7.57;5.53;;;;;;;;;;2569733;23;20011;-93
2023/09/08 04:44:47;;;;;;;14.27;6.43;;;;;;;;;;2568698;23;20054;-90
2023/09/08 04:45:50;;;;;;;10.13;6.32;;;;;;;;;;2572372;23;19985;-90
2023/09/08 04:46:52;;;;;;;9.20;6.10;;;;;;;;;;2573271;23;20004;-90
2023/09/08 04:47:52;;;;;;;14.70;6.47;;;;;;;;;;2567714;23;20042;-91
2023/09/08 04:48:53;;;;;;;9.32;5.78;;;;;;;;;;2556276;23;20032;-91
2023/09/08 04:49:53;;;;;;;10.20;5.38;;;;;;;;;;2581429;23;20003;-91
2023/09/08 04:50:53;;;;;;;8.80;6.32;;;;;;;;;;2578954;23;19985;-90
2023/09/08 04:51:54;;;;;;;8.63;5.00;;;;;;;;;;2573446;23;20240;-91
2023/09/08 04:52:54;;;;;;;8.68;5.25;;;;;;;;;;2568900;23;20003;-91
2023/09/08 04:53:54;;;;;;;9.88;4.95;;;;;;;;;;2572365;23;20482;-90
2023/09/08 04:54:55;;;;;;;8.80;5.10;;;;;;;;;;2568365;23;20043;-91
2023/09/08 04:55:55;;;;;;;8.90;4.95;;;;;;;;;;2568355;23;20004;-91
2023/09/08 04:56:56;;;;;;;11.23;5.00;;;;;;;;;;2572230;23;20003;-91
2023/09/08 04:57:56;;;;;;;7.93;4.43;;;;;;;;;;2581298;23;19999;-91
2023/09/08 04:58:57;;;;;;;7.47;4.45;;;;;;;;;;2585206;23;20015;-91
2023/09/08 05:00:03;;;;;;;4.58;3.27;;;;;;;;;;1485676;23;10022196;-91
2023/09/08 05:01:05;;;;;;;7.10;3.95;;;;;;;;;;2557879;23;20633;-90
2023/09/08 05:02:05;;;;;;;8.35;4.95;;;;;;;;;;2556573;23;20171;-91
2023/09/08 05:03:06;;;;;;;7.10;4.55;;;;;;;;;;2568093;23;20070;-91
2023/09/08 05:04:06;;;;;;;6.63;4.70;;;;;;;;;;2583340;23;20322;-92
2023/09/08 05:05:07;;;;;;;7.65;4.63;;;;;;;;;;2567927;23;20188;-90
2023/09/08 05:06:10;;;;;;;11.10;4.35;;;;;;;;;;2570776;23;20162;-91
2023/09/08 05:07:13;;;;;;;6.40;4.28;;;;;;;;;;2571597;23;20012;-91
2023/09/08 05:08:13;;;;;;;7.18;4.30;;;;;;;;;;2580002;23;20004;-91
2023/09/08 05:09:14;;;;;;;8.63;4.30;;;;;;;;;;2567959;23;20012;-91
2023/09/08 05:10:15;;;;;;;8.73;4.55;;;;;;;;;;2555456;23;20423;-90
2023/09/08 05:11:15;;;;;;;6.95;4.30;;;;;;;;;;2555010;23;20005;-91
2023/09/08 05:12:16;;;;;;;6.55;4.18;;;;;;;;;;2569771;23;20342;-91
2023/09/08 05:13:16;;;;;;;4.90;4.10;;;;;;;;;;2580085;23;20004;-91
2023/09/08 05:14:17;;;;;;;5.20;3.92;;;;;;;;;;2580072;23;20004;-91
2023/09/08 05:15:20;;;;;;;5.72;3.70;;;;;;;;;;2569759;23;20066;-90
2023/09/08 05:16:36;;;;;;;5.28;3.80;;;;;;;;;;2567677;23;20083;-90
2023/09/08 05:17:36;;;;;;;5.45;3.90;;;;;;;;;;2559161;23;20001;-90
2023/09/08 05:18:39;;;;;;;7.05;4.20;;;;;;;;;;2569206;23;20000;-90
2023/09/08 05:19:39;;;;;;;6.53;4.25;;;;;;;;;;2581127;23;20437;-90
2023/09/08 05:20:39;;;;;;;5.45;3.50;;;;;;;;;;2568222;23;20008;-91
2023/09/08 05:21:41;;;;;;;5.00;3.58;;;;;;;;;;2568274;23;20100;-90
2023/09/08 05:22:41;;;;;;;7.55;3.80;;;;;;;;;;2568652;23;20036;-89
2023/09/08 05:23:41;;;;;;;7.03;3.42;;;;;;;;;;2580710;23;20412;-89
2023/09/08 05:24:42;;;;;;;8.15;3.70;;;;;;;;;;2581860;23;20031;-91
2023/09/08 05:25:42;;;;;;;7.00;4.32;;;;;;;;;;2568283;23;20462;-89
2023/09/08 05:26:43;;;;;;;6.05;3.90;;;;;;;;;;2563597;23;20012;-90
2023/09/08 05:27:45;;;;;;;4.63;3.63;;;;;;;;;;2543712;23;20057;-90
2023/09/08 05:28:46;;;;;;;6.78;4.15;;;;;;;;;;2543752;23;20044;-90
2023/09/08 05:29:50;;;;;;;6.60;3.70;;;;;;;;;;2544850;23;20424;-90
2023/09/08 05:30:51;;;;;;;6.40;3.75;;;;;;;;;;2560680;23;20003;-89
2023/09/08 05:31:51;;;;;;;8.50;4.00;;;;;;;;;;2560127;23;19989;-89
2023/09/08 05:32:53;;;;;;;6.57;3.85;;;;;;;;;;2560628;23;19993;-91
2023/09/08 05:33:53;;;;;;;5.03;3.63;;;;;;;;;;2547018;23;19993;-90
2023/09/08 05:34:54;;;;;;;7.00;4.45;;;;;;;;;;2543626;23;20000;-90
2023/09/08 05:35:54;;;;;;;7.90;3.70;;;;;;;;;;2532952;23;20006;-88
2023/09/08 05:36:54;;;;;;;5.63;3.92;;;;;;;;;;2531257;23;20101;-89
2023/09/08 05:37:55;;;;;;;6.68;4.20;;;;;;;;;;2534988;23;20018;-91
2023/09/08 05:38:55;;;;;;;6.90;4.07;;;;;;;;;;2538635;23;20002;-88
2023/09/08 05:39:56;;;;;;;10.82;3.90;;;;;;;;;;2550837;23;19993;-90
2023/09/08 05:40:56;;;;;;;5.00;3.58;;;;;;;;;;2544084;23;20008;-89
2023/09/08 05:41:57;;;;;;;8.98;4.30;;;;;;;;;;2532195;23;20010;-89
2023/09/08 05:43:00;;;;;;;5.60;3.78;;;;;;;;;;2548749;23;20384;-90
2023/09/08 05:44:00;;;;;;;6.65;4.10;;;;;;;;;;2543836;23;20463;-91
2023/09/08 05:45:01;;;;;;;9.85;3.97;;;;;;;;;;2531975;23;20069;-89
2023/09/08 05:46:01;;;;;;;6.38;4.30;;;;;;;;;;2547306;23;20547;-89
2023/09/08 05:47:02;;;;;;;5.38;3.92;;;;;;;;;;2543830;23;20036;-89
2023/09/08 05:48:03;;;;;;;5.15;3.83;;;;;;;;;;2534648;23;20004;-90
2023/09/08 05:49:03;;;;;;;10.30;4.20;;;;;;;;;;2531686;23;20002;-90
2023/09/08 05:50:04;;;;;;;5.47;3.88;;;;;;;;;;2546815;23;20356;-90
2023/09/08 05:51:06;;;;;;;5.85;3.88;;;;;;;;;;2559980;23;20211;-89
2023/09/08 05:52:06;;;;;;;7.43;4.10;;;;;;;;;;2559863;23;20562;-89
2023/09/08 05:53:07;;;;;;;6.68;3.72;;;;;;;;;;2559347;23;20040;-89
2023/09/08 05:54:07;;;;;;;5.43;3.55;;;;;;;;;;2555761;23;20071;-89
2023/09/08 05:55:08;;;;;;;6.22;3.65;;;;;;;;;;2543634;23;20013;-90
2023/09/08 05:56:08;;;;;;;5.03;4.13;;;;;;;;;;2546168;23;20032;-91
2023/09/08 05:57:08;;;;;;;6.72;3.60;;;;;;;;;;2560360;23;20005;-91
2023/09/08 05:58:09;;;;;;;5.03;3.80;;;;;;;;;;2560969;23;20038;-91
2023/09/08 05:59:09;;;;;;;5.80;3.70;;;;;;;;;;2556766;23;20077;-90
2023/09/08 06:00:10;;;;;;;4.63;3.45;;;;;;;;;;2543711;23;20009;-89
2023/09/08 06:01:11;;;;;;;6.82;3.55;;;;;;;;;;2534103;23;20016;-89